Time;durP1;ratioP1;P1;durP2;ratioP2;P2;SDS_P1;SDS_P2;PMS_P1;PMS_P2;Temp;Humidity;BMP_temperature;BMP_pressure;BME280_temperature;BME280_humidity;BME280_pressure;Samples;Min_cycle;Max_cycle;Signal;HPM_P1;HPM_P2
2021/12/09 00:01:49;;;;;;;11.35;5.97;;;;;;;;;;5053150;28;20052;-69
2021/12/09 00:04:22;;;;;;;12.90;5.32;;;;;;;;;;5054038;28;20045;-69
2021/12/09 00:06:48;;;;;;;11.50;6.10;;;;;;;;;;5053735;28;20098;-69
2021/12/09 00:09:19;;;;;;;14.20;6.43;;;;;;;;;;5053158;28;20041;-69
2021/12/09 00:11:46;;;;;;;11.85;6.50;;;;;;;;;;5053431;28;20090;-69
2021/12/09 00:14:18;;;;;;;12.82;7.25;;;;;;;;;;5052654;28;20041;-69
2021/12/09 00:16:44;;;;;;;13.32;6.38;;;;;;;;;;5053220;28;20041;-69
2021/12/09 00:19:11;;;;;;;13.98;6.35;;;;;;;;;;5053844;28;20037;-69
2021/12/09 00:21:37;;;;;;;10.43;6.18;;;;;;;;;;5053694;28;20047;-69
2021/12/09 00:24:03;;;;;;;15.60;7.53;;;;;;;;;;5052638;28;20053;-70
2021/12/09 00:26:29;;;;;;;14.85;6.68;;;;;;;;;;5053728;28;20045;-69
2021/12/09 00:28:56;;;;;;;14.98;6.22;;;;;;;;;;5053658;28;20049;-70
2021/12/09 00:31:23;;;;;;;10.88;6.50;;;;;;;;;;5052581;28;20077;-69
2021/12/09 00:33:49;;;;;;;15.10;6.30;;;;;;;;;;5053389;28;20053;-69
2021/12/09 00:36:26;;;;;;;12.10;6.78;;;;;;;;;;5035438;28;20131;-69
2021/12/09 00:38:53;;;;;;;14.50;6.88;;;;;;;;;;5036595;28;20083;-69
2021/12/09 00:41:19;;;;;;;18.13;7.40;;;;;;;;;;5053196;28;20032;-69
2021/12/09 00:43:45;;;;;;;17.55;6.15;;;;;;;;;;5053236;28;20047;-69
2021/12/09 00:46:11;;;;;;;15.27;6.32;;;;;;;;;;5052709;28;20076;-69
2021/12/09 00:48:37;;;;;;;15.50;7.32;;;;;;;;;;5053136;28;20073;-69
2021/12/09 00:51:04;;;;;;;9.70;6.00;;;;;;;;;;5035109;28;20094;-69
2021/12/09 00:53:30;;;;;;;10.77;6.57;;;;;;;;;;5052334;28;20037;-69
2021/12/09 00:55:56;;;;;;;14.07;7.45;;;;;;;;;;5053089;28;20041;-69
2021/12/09 00:58:23;;;;;;;12.27;6.53;;;;;;;;;;5053045;28;20041;-69
2021/12/09 01:00:50;;;;;;;12.38;7.07;;;;;;;;;;5052307;28;20032;-69
2021/12/09 01:03:16;;;;;;;11.80;6.72;;;;;;;;;;5052840;28;20036;-69
2021/12/09 01:05:44;;;;;;;10.20;6.03;;;;;;;;;;5035047;28;20072;-69
2021/12/09 01:08:10;;;;;;;12.32;6.13;;;;;;;;;;5052254;28;20041;-69
2021/12/09 01:10:37;;;;;;;10.77;6.00;;;;;;;;;;5052931;28;20476;-69
2021/12/09 01:13:04;;;;;;;13.00;6.75;;;;;;;;;;5052519;28;20044;-69
2021/12/09 01:15:30;;;;;;;14.68;7.30;;;;;;;;;;5051763;28;20041;-69
2021/12/09 01:17:56;;;;;;;15.13;6.53;;;;;;;;;;5052845;28;20036;-69
2021/12/09 01:20:25;;;;;;;15.07;6.72;;;;;;;;;;5052803;28;20143;-69
2021/12/09 01:22:53;;;;;;;10.27;6.28;;;;;;;;;;5051632;28;20098;-69
2021/12/09 01:25:19;;;;;;;14.43;7.15;;;;;;;;;;5017435;28;20055;-69
2021/12/09 01:27:47;;;;;;;12.63;6.60;;;;;;;;;;5052272;28;20041;-69
2021/12/09 01:30:16;;;;;;;16.83;7.18;;;;;;;;;;5051684;28;20083;-69
2021/12/09 01:32:48;;;;;;;18.00;6.28;;;;;;;;;;5052295;28;20049;-69
2021/12/09 01:35:15;;;;;;;12.13;6.70;;;;;;;;;;5052118;28;20790;-69
2021/12/09 01:37:41;;;;;;;9.13;5.55;;;;;;;;;;5051524;28;20037;-70
2021/12/09 01:40:09;;;;;;;11.43;6.38;;;;;;;;;;5052373;28;20116;-69
2021/12/09 01:42:35;;;;;;;13.38;6.18;;;;;;;;;;5034265;28;20128;-70
2021/12/09 01:45:02;;;;;;;11.07;6.60;;;;;;;;;;5050179;28;20380;-70
2021/12/09 01:47:28;;;;;;;11.45;5.82;;;;;;;;;;5052281;28;20092;-69
2021/12/09 01:49:55;;;;;;;15.88;6.35;;;;;;;;;;5052145;28;20091;-69
2021/12/09 01:52:21;;;;;;;15.65;6.72;;;;;;;;;;5051425;28;20041;-69
2021/12/09 01:54:47;;;;;;;18.35;7.30;;;;;;;;;;5051867;28;20447;-69
2021/12/09 01:57:13;;;;;;;12.90;6.78;;;;;;;;;;5052084;28;20120;-69
2021/12/09 01:59:39;;;;;;;18.20;6.85;;;;;;;;;;5051350;28;20829;-69
2021/12/09 02:02:05;;;;;;;13.20;6.97;;;;;;;;;;5051532;28;20126;-69
2021/12/09 02:04:32;;;;;;;11.75;6.65;;;;;;;;;;5033796;28;20049;-69
2021/12/09 02:06:58;;;;;;;10.85;6.78;;;;;;;;;;5033154;28;20056;-69
2021/12/09 02:09:24;;;;;;;10.52;6.20;;;;;;;;;;5051374;28;20105;-69
2021/12/09 02:11:50;;;;;;;12.57;6.78;;;;;;;;;;5033696;28;20484;-69
2021/12/09 02:14:16;;;;;;;9.70;6.57;;;;;;;;;;5032898;28;20060;-69
2021/12/09 02:16:42;;;;;;;12.93;6.50;;;;;;;;;;5051756;28;20034;-69
2021/12/09 02:19:11;;;;;;;10.85;6.82;;;;;;;;;;5051775;28;20499;-69
2021/12/09 02:21:37;;;;;;;13.98;7.05;;;;;;;;;;5050981;28;20044;-70
2021/12/09 02:24:06;;;;;;;10.25;7.00;;;;;;;;;;5051275;28;20052;-70
2021/12/09 02:26:34;;;;;;;11.73;6.80;;;;;;;;;;5051503;28;20083;-70
2021/12/09 02:29:01;;;;;;;13.70;6.85;;;;;;;;;;5050821;28;20051;-70
2021/12/09 02:31:28;;;;;;;12.40;7.20;;;;;;;;;;5050925;28;20048;-70
2021/12/09 02:33:55;;;;;;;12.23;7.00;;;;;;;;;;5051499;28;20049;-69
2021/12/09 02:36:21;;;;;;;10.65;7.40;;;;;;;;;;5051156;28;20037;-69
2021/12/09 02:38:49;;;;;;;13.13;7.50;;;;;;;;;;5057927;28;20037;-69
2021/12/09 02:41:18;;;;;;;14.68;8.00;;;;;;;;;;5057922;28;20047;-69
2021/12/09 02:43:45;;;;;;;10.65;6.38;;;;;;;;;;5057697;28;20127;-69
2021/12/09 02:46:11;;;;;;;15.18;7.47;;;;;;;;;;5058287;28;20041;-69
2021/12/09 02:48:37;;;;;;;9.95;7.18;;;;;;;;;;5057896;28;20056;-69
2021/12/09 02:51:06;;;;;;;17.33;7.85;;;;;;;;;;5039796;28;20383;-69
2021/12/09 02:53:33;;;;;;;12.73;7.63;;;;;;;;;;5057588;28;20076;-69
2021/12/09 02:55:59;;;;;;;16.80;7.78;;;;;;;;;;5057643;28;20039;-70
2021/12/09 02:58:25;;;;;;;19.45;7.88;;;;;;;;;;5039702;28;20044;-69
2021/12/09 03:00:51;;;;;;;16.52;8.18;;;;;;;;;;5057053;28;20052;-69
2021/12/09 03:03:17;;;;;;;16.17;7.65;;;;;;;;;;5057788;28;20040;-69
2021/12/09 03:05:45;;;;;;;13.80;7.68;;;;;;;;;;5057808;28;20395;-69
2021/12/09 03:08:11;;;;;;;11.63;7.90;;;;;;;;;;5057040;28;20086;-70
2021/12/09 03:10:38;;;;;;;18.50;7.93;;;;;;;;;;5057475;28;20069;-69
2021/12/09 03:13:05;;;;;;;12.50;7.43;;;;;;;;;;5057665;28;20041;-69
2021/12/09 03:15:34;;;;;;;14.07;7.72;;;;;;;;;;5057155;28;20045;-69
2021/12/09 03:18:00;;;;;;;13.55;7.75;;;;;;;;;;5057768;28;20033;-69
2021/12/09 03:20:27;;;;;;;12.88;7.90;;;;;;;;;;5057797;28;20033;-69
2021/12/09 03:22:53;;;;;;;13.85;7.82;;;;;;;;;;5056847;28;20388;-69
2021/12/09 03:25:20;;;;;;;17.50;8.07;;;;;;;;;;5057655;28;20049;-69
2021/12/09 03:27:46;;;;;;;11.65;8.00;;;;;;;;;;5057818;28;20033;-69
2021/12/09 03:30:13;;;;;;;13.52;8.02;;;;;;;;;;5057092;28;20040;-69
2021/12/09 03:32:39;;;;;;;17.75;8.05;;;;;;;;;;5057610;28;20479;-69
2021/12/09 03:35:06;;;;;;;15.65;8.20;;;;;;;;;;5039328;28;20045;-69
2021/12/09 03:37:33;;;;;;;16.35;7.65;;;;;;;;;;5057001;28;20080;-69
2021/12/09 03:39:59;;;;;;;15.45;8.30;;;;;;;;;;5057525;28;20040;-69
2021/12/09 03:42:27;;;;;;;17.60;7.82;;;;;;;;;;5057382;28;20040;-69
2021/12/09 03:44:54;;;;;;;15.32;8.15;;;;;;;;;;5056937;28;20033;-69
2021/12/09 03:47:21;;;;;;;16.00;7.93;;;;;;;;;;5039395;28;20441;-69
2021/12/09 03:49:48;;;;;;;10.30;7.30;;;;;;;;;;5035784;28;20099;-69
2021/12/09 03:52:15;;;;;;;15.82;8.30;;;;;;;;;;5053627;28;20777;-69
2021/12/09 03:54:41;;;;;;;11.10;6.85;;;;;;;;;;5053965;28;20044;-69
2021/12/09 03:57:08;;;;;;;11.82;7.13;;;;;;;;;;5054370;28;20095;-69
2021/12/09 03:59:34;;;;;;;12.23;8.00;;;;;;;;;;5053592;28;20084;-69
2021/12/09 04:02:01;;;;;;;13.90;8.27;;;;;;;;;;5054078;28;20395;-69
2021/12/09 04:04:27;;;;;;;14.02;8.30;;;;;;;;;;5054135;28;20045;-69
2021/12/09 04:06:53;;;;;;;14.23;8.88;;;;;;;;;;5053392;28;20472;-69
2021/12/09 04:09:22;;;;;;;16.00;8.07;;;;;;;;;;5054066;28;20041;-69
2021/12/09 04:11:47;;;;;;;15.85;8.48;;;;;;;;;;5053859;28;20129;-69
2021/12/09 04:14:14;;;;;;;13.52;8.27;;;;;;;;;;5053093;28;20668;-69
2021/12/09 04:16:40;;;;;;;13.48;8.05;;;;;;;;;;5035776;28;20124;-69
2021/12/09 04:19:07;;;;;;;13.63;8.00;;;;;;;;;;5053942;28;20491;-69
2021/12/09 04:21:34;;;;;;;17.83;8.73;;;;;;;;;;5052748;28;20095;-70
2021/12/09 04:24:07;;;;;;;15.02;8.40;;;;;;;;;;5021079;28;20416;-69
2021/12/09 04:26:33;;;;;;;15.25;8.80;;;;;;;;;;5033434;28;20053;-69
2021/12/09 04:28:59;;;;;;;16.42;8.73;;;;;;;;;;5033131;28;20097;-69
2021/12/09 04:31:26;;;;;;;16.80;9.40;;;;;;;;;;5033151;28;20103;-69
2021/12/09 04:33:52;;;;;;;13.38;8.60;;;;;;;;;;5033558;28;20522;-69
2021/12/09 04:36:19;;;;;;;16.58;9.05;;;;;;;;;;5033001;28;20034;-69
2021/12/09 04:38:47;;;;;;;18.25;9.20;;;;;;;;;;5033243;28;20045;-69
2021/12/09 04:41:14;;;;;;;14.45;8.35;;;;;;;;;;5033158;28;20049;-69
2021/12/09 04:43:41;;;;;;;14.77;8.60;;;;;;;;;;5014836;28;20045;-69
2021/12/09 04:46:07;;;;;;;14.43;8.70;;;;;;;;;;5033401;28;20088;-69
2021/12/09 04:48:33;;;;;;;18.05;9.25;;;;;;;;;;5033337;28;20095;-69
2021/12/09 04:50:59;;;;;;;18.33;8.68;;;;;;;;;;5032772;28;20439;-69
2021/12/09 04:53:25;;;;;;;20.02;9.57;;;;;;;;;;5033044;28;20453;-69
2021/12/09 04:55:51;;;;;;;18.20;8.95;;;;;;;;;;5033061;28;20069;-69
2021/12/09 04:58:18;;;;;;;12.77;8.73;;;;;;;;;;5032224;28;20492;-69
2021/12/09 05:00:44;;;;;;;18.30;8.63;;;;;;;;;;5015149;28;20045;-69
2021/12/09 05:03:12;;;;;;;17.27;8.77;;;;;;;;;;5033024;28;20523;-69
2021/12/09 05:05:43;;;;;;;16.20;9.13;;;;;;;;;;5032130;28;20046;-69
2021/12/09 05:08:11;;;;;;;14.45;9.13;;;;;;;;;;4998963;28;20129;-69
2021/12/09 05:10:51;;;;;;;17.27;8.85;;;;;;;;;;5032918;28;20550;-69
2021/12/09 05:13:18;;;;;;;17.48;9.30;;;;;;;;;;5032171;28;20045;-69
2021/12/09 05:15:45;;;;;;;15.20;9.35;;;;;;;;;;5032855;28;20500;-69
2021/12/09 05:18:11;;;;;;;17.42;9.23;;;;;;;;;;5033023;28;20060;-69
2021/12/09 05:20:37;;;;;;;25.25;9.02;;;;;;;;;;5032087;28;20033;-69
2021/12/09 05:23:04;;;;;;;16.77;9.60;;;;;;;;;;5039148;28;20048;-69
2021/12/09 05:25:30;;;;;;;18.30;9.57;;;;;;;;;;5034323;28;20076;-69
2021/12/09 05:27:56;;;;;;;19.02;9.65;;;;;;;;;;5051616;28;20064;-69
2021/12/09 05:30:25;;;;;;;16.42;9.52;;;;;;;;;;5052505;28;20041;-69
2021/12/09 05:32:51;;;;;;;17.77;8.98;;;;;;;;;;5052268;28;20048;-69
2021/12/09 05:35:18;;;;;;;14.90;8.95;;;;;;;;;;5051678;28;20048;-69
2021/12/09 05:37:47;;;;;;;18.65;8.93;;;;;;;;;;5034432;28;20047;-69
2021/12/09 05:40:15;;;;;;;17.70;9.95;;;;;;;;;;5034235;28;20533;-69
2021/12/09 05:42:41;;;;;;;15.98;8.70;;;;;;;;;;5051434;28;20069;-69
2021/12/09 05:45:07;;;;;;;21.42;10.10;;;;;;;;;;5052241;28;20490;-69
2021/12/09 05:47:33;;;;;;;17.98;8.85;;;;;;;;;;5052247;28;20083;-69
2021/12/09 05:50:00;;;;;;;20.63;9.55;;;;;;;;;;5051353;28;20097;-69
2021/12/09 05:52:26;;;;;;;18.15;9.57;;;;;;;;;;5052064;28;20040;-69
2021/12/09 05:54:52;;;;;;;17.27;9.32;;;;;;;;;;5051941;28;20660;-69
2021/12/09 05:57:18;;;;;;;18.30;9.63;;;;;;;;;;5051296;28;20414;-69
2021/12/09 05:59:45;;;;;;;18.55;9.50;;;;;;;;;;5051756;28;20048;-69
2021/12/09 06:02:12;;;;;;;17.55;10.02;;;;;;;;;;5051530;28;20041;-69
2021/12/09 06:04:38;;;;;;;25.92;12.45;;;;;;;;;;5051200;28;20163;-70
2021/12/09 06:07:06;;;;;;;20.80;10.57;;;;;;;;;;5034008;28;20041;-69
2021/12/09 06:09:33;;;;;;;16.15;9.70;;;;;;;;;;5051801;28;20134;-69
2021/12/09 06:11:59;;;;;;;18.75;10.95;;;;;;;;;;5050731;28;20033;-69
2021/12/09 06:14:25;;;;;;;20.83;10.32;;;;;;;;;;5051503;28;20041;-69
2021/12/09 06:16:51;;;;;;;22.92;11.15;;;;;;;;;;5033675;28;20140;-69
2021/12/09 06:19:17;;;;;;;24.95;10.60;;;;;;;;;;5051043;28;20119;-69
2021/12/09 06:21:43;;;;;;;15.63;9.75;;;;;;;;;;5051550;28;20037;-69
2021/12/09 06:24:09;;;;;;;23.25;10.57;;;;;;;;;;5051270;28;20387;-69
2021/12/09 06:26:35;;;;;;;16.33;9.98;;;;;;;;;;5050830;28;20365;-69
2021/12/09 06:29:01;;;;;;;23.17;10.15;;;;;;;;;;5051521;28;20036;-69
2021/12/09 06:31:27;;;;;;;18.92;10.35;;;;;;;;;;5051135;28;20040;-69
2021/12/09 06:33:54;;;;;;;13.82;8.13;;;;;;;;;;5050756;28;20060;-69
2021/12/09 06:36:20;;;;;;;21.25;10.07;;;;;;;;;;5051185;28;20037;-69
2021/12/09 06:38:46;;;;;;;19.52;9.50;;;;;;;;;;5051211;28;20091;-69
2021/12/09 06:41:12;;;;;;;17.25;9.25;;;;;;;;;;5050876;28;20095;-69
2021/12/09 06:43:40;;;;;;;16.08;9.48;;;;;;;;;;5051156;28;20045;-69
2021/12/09 06:46:07;;;;;;;18.15;8.98;;;;;;;;;;5033438;28;20045;-69
2021/12/09 06:48:33;;;;;;;20.90;9.10;;;;;;;;;;5032603;28;20056;-69
2021/12/09 06:51:01;;;;;;;21.75;9.55;;;;;;;;;;5049966;28;20076;-70
2021/12/09 06:53:29;;;;;;;20.27;9.68;;;;;;;;;;5049106;28;20041;-69
2021/12/09 06:55:55;;;;;;;19.02;10.15;;;;;;;;;;5048232;28;20048;-69
2021/12/09 06:58:21;;;;;;;19.23;7.95;;;;;;;;;;5049532;28;20052;-70
2021/12/09 07:00:48;;;;;;;15.10;8.07;;;;;;;;;;5050598;28;20122;-69
2021/12/09 07:03:16;;;;;;;22.42;9.13;;;;;;;;;;5049633;28;20037;-69
2021/12/09 07:05:44;;;;;;;17.63;9.07;;;;;;;;;;5030864;28;20501;-69
2021/12/09 07:08:11;;;;;;;17.00;8.73;;;;;;;;;;5045425;28;20488;-70
2021/12/09 07:10:37;;;;;;;19.13;9.52;;;;;;;;;;5049802;28;20040;-69
2021/12/09 07:13:05;;;;;;;18.95;8.63;;;;;;;;;;5049774;28;20392;-69
2021/12/09 07:15:31;;;;;;;13.43;8.60;;;;;;;;;;5049742;28;20037;-69
2021/12/09 07:17:58;;;;;;;18.30;9.93;;;;;;;;;;5050312;28;20063;-69
2021/12/09 07:20:24;;;;;;;18.92;8.85;;;;;;;;;;5050844;28;20044;-69
2021/12/09 07:22:51;;;;;;;17.42;8.90;;;;;;;;;;5032538;28;20057;-69
2021/12/09 07:25:17;;;;;;;16.98;9.90;;;;;;;;;;5051929;28;20789;-70
2021/12/09 07:27:43;;;;;;;16.08;9.35;;;;;;;;;;5054464;28;20041;-69
2021/12/09 07:30:11;;;;;;;20.58;9.52;;;;;;;;;;5053666;28;20493;-66
2021/12/09 07:32:37;;;;;;;18.23;8.43;;;;;;;;;;5052549;28;20906;-67
2021/12/09 07:35:05;;;;;;;18.15;9.10;;;;;;;;;;5052871;28;20045;-67
2021/12/09 07:37:31;;;;;;;20.65;9.73;;;;;;;;;;5046257;28;20746;-69
2021/12/09 07:39:57;;;;;;;17.10;9.13;;;;;;;;;;5046992;28;20033;-68
2021/12/09 07:42:23;;;;;;;17.17;8.65;;;;;;;;;;5053692;28;20129;-68
2021/12/09 07:44:51;;;;;;;20.05;9.18;;;;;;;;;;5035304;28;20123;-67
2021/12/09 07:47:17;;;;;;;16.30;9.15;;;;;;;;;;5018418;28;20048;-69
2021/12/09 07:49:44;;;;;;;21.83;9.20;;;;;;;;;;5035020;28;20053;-66
2021/12/09 07:52:10;;;;;;;14.70;8.85;;;;;;;;;;5048041;28;20049;-66
2021/12/09 07:54:37;;;;;;;20.13;10.02;;;;;;;;;;5052840;28;20092;-66
2021/12/09 07:57:03;;;;;;;16.15;9.82;;;;;;;;;;5034417;28;20045;-65
2021/12/09 07:59:29;;;;;;;18.20;9.35;;;;;;;;;;5053353;28;20032;-66
2021/12/09 08:01:55;;;;;;;23.52;9.13;;;;;;;;;;5054327;28;20159;-61
2021/12/09 08:04:21;;;;;;;19.70;9.55;;;;;;;;;;5031233;28;20033;-65
2021/12/09 08:06:48;;;;;;;16.00;9.10;;;;;;;;;;5053517;28;20044;-64
2021/12/09 08:09:14;;;;;;;19.15;9.88;;;;;;;;;;5052473;28;20049;-63
2021/12/09 08:11:41;;;;;;;19.00;9.32;;;;;;;;;;5049637;28;20045;-65
2021/12/09 08:14:11;;;;;;;19.00;9.27;;;;;;;;;;5052397;28;20060;-66
2021/12/09 08:16:38;;;;;;;18.98;8.85;;;;;;;;;;5051599;28;20096;-66
2021/12/09 08:19:08;;;;;;;19.20;9.70;;;;;;;;;;5051369;28;20041;-66
2021/12/09 08:21:36;;;;;;;19.45;9.68;;;;;;;;;;5050705;28;20072;-64
2021/12/09 08:24:03;;;;;;;14.77;9.30;;;;;;;;;;5051211;28;20416;-61
2021/12/09 08:26:30;;;;;;;19.67;9.23;;;;;;;;;;5051960;28;20051;-64
2021/12/09 08:28:57;;;;;;;23.35;8.88;;;;;;;;;;5050708;28;20107;-63
2021/12/09 08:31:23;;;;;;;21.85;9.90;;;;;;;;;;5051341;28;20095;-62
2021/12/09 08:33:49;;;;;;;16.30;9.77;;;;;;;;;;5051173;28;20037;-63
2021/12/09 08:36:15;;;;;;;17.48;9.10;;;;;;;;;;5050652;28;20099;-61
2021/12/09 08:38:41;;;;;;;21.35;10.32;;;;;;;;;;5051900;28;20033;-61
2021/12/09 08:41:08;;;;;;;16.73;9.13;;;;;;;;;;5050392;28;20087;-63
2021/12/09 08:43:35;;;;;;;17.38;9.23;;;;;;;;;;5051508;28;20068;-64
2021/12/09 08:46:01;;;;;;;17.70;9.45;;;;;;;;;;5031986;28;20140;-65
2021/12/09 08:48:27;;;;;;;21.58;9.82;;;;;;;;;;5048341;28;20033;-64
2021/12/09 08:50:54;;;;;;;18.77;8.38;;;;;;;;;;5052254;28;20147;-62
2021/12/09 08:53:22;;;;;;;20.13;9.95;;;;;;;;;;5050295;28;20041;-63
2021/12/09 08:55:48;;;;;;;21.23;10.25;;;;;;;;;;5042129;28;20043;-61
2021/12/09 08:58:15;;;;;;;22.45;11.07;;;;;;;;;;5052206;28;20064;-60
2021/12/09 09:00:42;;;;;;;21.83;10.10;;;;;;;;;;5046798;28;20091;-64
2021/12/09 09:03:08;;;;;;;20.30;9.20;;;;;;;;;;5032856;28;20049;-65
2021/12/09 09:05:36;;;;;;;18.27;9.68;;;;;;;;;;5051484;28;20116;-64
2021/12/09 09:08:03;;;;;;;16.08;9.02;;;;;;;;;;5050630;28;20037;-64
2021/12/09 09:10:30;;;;;;;16.08;8.65;;;;;;;;;;5049989;28;20033;-64
2021/12/09 09:12:56;;;;;;;18.27;9.77;;;;;;;;;;5048261;28;20538;-63
2021/12/09 09:15:23;;;;;;;18.23;9.63;;;;;;;;;;5051426;28;20037;-65
2021/12/09 09:17:50;;;;;;;16.42;9.05;;;;;;;;;;5026910;28;20037;-66
2021/12/09 09:20:17;;;;;;;15.38;8.18;;;;;;;;;;5032782;28;20037;-64
2021/12/09 09:22:44;;;;;;;22.27;9.82;;;;;;;;;;5048335;28;20565;-63
2021/12/09 09:25:14;;;;;;;17.77;9.23;;;;;;;;;;5049751;28;20056;-63
2021/12/09 09:27:41;;;;;;;22.13;8.77;;;;;;;;;;5051343;28;20441;-65
2021/12/09 09:30:07;;;;;;;15.38;9.02;;;;;;;;;;5038901;28;20365;-62
2021/12/09 09:32:34;;;;;;;19.52;8.35;;;;;;;;;;5048184;28;20411;-62
2021/12/09 09:35:00;;;;;;;15.55;8.27;;;;;;;;;;5050838;28;20048;-63
2021/12/09 09:37:26;;;;;;;18.35;8.02;;;;;;;;;;5050833;28;20238;-66
2021/12/09 09:39:52;;;;;;;20.40;9.65;;;;;;;;;;5049141;28;20498;-64
2021/12/09 09:44:57;;;;;;;19.20;9.02;;;;;;;;;;5050487;28;20733;-65
2021/12/09 09:47:24;;;;;;;20.20;9.75;;;;;;;;;;5049198;28;20563;-64
2021/12/09 09:49:50;;;;;;;23.65;9.30;;;;;;;;;;5050232;28;20037;-65
2021/12/09 09:52:16;;;;;;;19.33;8.88;;;;;;;;;;5049576;28;20059;-64
2021/12/09 09:54:42;;;;;;;19.90;8.55;;;;;;;;;;5048429;28;20060;-66
2021/12/09 09:57:09;;;;;;;17.42;8.32;;;;;;;;;;5048993;28;20045;-66
2021/12/09 09:59:36;;;;;;;14.60;8.65;;;;;;;;;;5050411;28;20487;-64
2021/12/09 10:02:02;;;;;;;16.08;7.82;;;;;;;;;;5049582;28;20713;-65
2021/12/09 10:04:45;;;;;;;16.90;7.53;;;;;;;;;;5045812;28;20847;-65
2021/12/09 10:07:12;;;;;;;17.25;7.03;;;;;;;;;;5047101;28;20376;-65
2021/12/09 10:09:39;;;;;;;13.00;6.88;;;;;;;;;;5040480;28;20040;-64
2021/12/09 10:12:05;;;;;;;16.85;7.25;;;;;;;;;;5047836;28;20127;-64
2021/12/09 10:14:33;;;;;;;22.08;7.63;;;;;;;;;;5046843;28;20045;-65
2021/12/09 10:17:05;;;;;;;19.98;7.63;;;;;;;;;;5048652;28;20037;-65
2021/12/09 10:19:31;;;;;;;13.85;7.28;;;;;;;;;;5049776;28;20094;-65
2021/12/09 10:22:24;;;;;;;15.65;8.02;;;;;;;;;;5045974;28;20037;-63
2021/12/09 10:24:52;;;;;;;14.85;7.25;;;;;;;;;;5042306;28;20064;-65
2021/12/09 10:27:25;;;;;;;16.48;7.47;;;;;;;;;;5049856;28;20052;-64
2021/12/09 10:29:54;;;;;;;;;;;;;;;;;;5046061;28;20072;-64
2021/12/09 10:32:25;;;;;;;13.43;7.28;;;;;;;;;;5045565;28;20271;-65
2021/12/09 10:34:51;;;;;;;14.80;7.20;;;;;;;;;;5045043;28;20045;-64
2021/12/09 10:37:31;;;;;;;18.55;7.43;;;;;;;;;;5049250;28;20094;-64
2021/12/09 10:39:57;;;;;;;15.10;6.90;;;;;;;;;;5048528;28;20072;-63
2021/12/09 10:42:25;;;;;;;16.95;7.82;;;;;;;;;;5050129;28;20069;-64
2021/12/09 10:44:53;;;;;;;14.77;7.38;;;;;;;;;;5049502;28;20400;-64
2021/12/09 10:47:36;;;;;;;22.35;8.25;;;;;;;;;;5049441;28;20033;-64
2021/12/09 10:50:07;;;;;;;21.75;7.93;;;;;;;;;;5044610;28;20041;-65
2021/12/09 10:52:40;;;;;;;21.27;8.65;;;;;;;;;;5041665;28;20052;-64
2021/12/09 10:55:07;;;;;;;18.98;8.43;;;;;;;;;;5049902;28;20057;-64
2021/12/09 10:57:33;;;;;;;19.13;8.30;;;;;;;;;;5049203;28;20047;-63
2021/12/09 11:00:15;;;;;;;26.20;9.75;;;;;;;;;;5053385;28;20452;-65
2021/12/09 11:02:56;;;;;;;24.50;9.45;;;;;;;;;;5052744;28;20119;-66
2021/12/09 11:05:22;;;;;;;19.25;8.35;;;;;;;;;;5051857;28;20048;-64
2021/12/09 11:07:48;;;;;;;25.05;9.75;;;;;;;;;;5052304;28;20407;-65
2021/12/09 11:10:18;;;;;;;20.63;8.93;;;;;;;;;;5053498;28;20056;-64
2021/12/09 11:12:56;;;;;;;21.73;8.55;;;;;;;;;;5030856;28;20048;-64
2021/12/09 11:15:23;;;;;;;17.23;8.07;;;;;;;;;;5048961;28;20044;-64
2021/12/09 11:17:52;;;;;;;23.38;8.88;;;;;;;;;;5053194;28;20873;-64
2021/12/09 11:20:37;;;;;;;21.80;8.55;;;;;;;;;;5051374;28;20114;-63
2021/12/09 11:23:23;;;;;;;18.40;8.50;;;;;;;;;;5049614;28;20049;-64
2021/12/09 11:25:50;;;;;;;15.73;8.13;;;;;;;;;;5050893;28;20037;-64
2021/12/09 11:28:16;;;;;;;17.10;8.75;;;;;;;;;;5051976;28;20044;-66
2021/12/09 11:31:04;;;;;;;18.17;8.07;;;;;;;;;;5050866;28;20041;-67
2021/12/09 11:33:37;;;;;;;18.33;9.38;;;;;;;;;;5052004;28;20151;-65
2021/12/09 11:36:04;;;;;;;17.83;8.50;;;;;;;;;;5050486;28;20032;-66
2021/12/09 11:38:53;;;;;;;20.50;7.90;;;;;;;;;;5049802;28;20041;-64
2021/12/09 11:41:35;;;;;;;18.02;8.02;;;;;;;;;;5051104;28;20380;-64
2021/12/09 11:44:01;;;;;;;18.13;8.57;;;;;;;;;;5052418;28;20057;-64
2021/12/09 11:46:27;;;;;;;18.35;9.68;;;;;;;;;;5053583;28;20060;-64
2021/12/09 11:48:53;;;;;;;21.50;9.90;;;;;;;;;;5053695;28;20048;-64
2021/12/09 11:51:20;;;;;;;20.08;10.20;;;;;;;;;;5052799;28;20045;-64
2021/12/09 11:53:46;;;;;;;23.35;9.93;;;;;;;;;;5052872;28;20103;-64
2021/12/09 11:57:10;;;;;;;21.98;9.60;;;;;;;;;;5053293;28;20056;-64
2021/12/09 12:18:29;;;;;;;25.13;10.57;;;;;;;;;;5035454;28;20164;-63
2021/12/09 12:40:12;;;;;;;27.88;11.20;;;;;;;;;;5050134;28;20044;-63
2021/12/09 12:42:47;;;;;;;25.00;10.80;;;;;;;;;;5051240;28;20071;-62
2021/12/09 12:48:14;;;;;;;26.60;10.55;;;;;;;;;;5051719;28;20547;-63
2021/12/09 12:50:40;;;;;;;25.58;10.65;;;;;;;;;;5050978;28;20119;-65
2021/12/09 12:53:25;;;;;;;24.92;12.00;;;;;;;;;;5049500;28;20061;-65
2021/12/09 12:56:10;;;;;;;26.63;12.30;;;;;;;;;;5049982;28;20040;-65
2021/12/09 12:58:36;;;;;;;25.92;11.82;;;;;;;;;;5048948;28;20049;-66
2021/12/09 13:01:16;;;;;;;27.27;12.32;;;;;;;;;;5054348;28;20041;-64
2021/12/09 13:03:47;;;;;;;22.30;11.35;;;;;;;;;;5046901;28;20183;-63
2021/12/09 13:06:37;;;;;;;29.77;13.17;;;;;;;;;;5036756;28;20530;-64
2021/12/09 13:09:21;;;;;;;23.98;11.77;;;;;;;;;;5044323;28;20372;-65
2021/12/09 13:11:52;;;;;;;23.70;12.55;;;;;;;;;;5051963;28;20084;-66
2021/12/09 13:14:25;;;;;;;26.52;12.77;;;;;;;;;;5032797;28;20180;-66
2021/12/09 13:17:05;;;;;;;30.77;13.02;;;;;;;;;;5034037;28;20071;-66
2021/12/09 13:19:42;;;;;;;25.23;12.93;;;;;;;;;;5051826;28;20037;-66
2021/12/09 13:22:11;;;;;;;30.52;13.23;;;;;;;;;;5032646;28;20041;-66
2021/12/09 13:27:30;;;;;;;28.08;13.18;;;;;;;;;;5051867;28;20052;-68
2021/12/09 13:38:18;;;;;;;28.98;12.90;;;;;;;;;;5047504;28;20055;-65
2021/12/09 13:46:35;;;;;;;33.00;14.27;;;;;;;;;;5051464;28;20091;-64
2021/12/09 13:49:11;;;;;;;30.50;12.65;;;;;;;;;;5051460;28;20048;-66
2021/12/09 13:54:27;;;;;;;23.88;12.32;;;;;;;;;;5051185;28;20051;-67
2021/12/09 13:56:56;;;;;;;27.60;12.55;;;;;;;;;;5051312;28;20049;-65
2021/12/09 13:59:25;;;;;;;25.88;12.38;;;;;;;;;;5050805;28;20508;-67
2021/12/09 14:01:52;;;;;;;26.80;12.57;;;;;;;;;;5051915;28;20102;-66
2021/12/09 14:04:21;;;;;;;27.30;11.63;;;;;;;;;;5050636;28;20045;-65
2021/12/09 14:07:01;;;;;;;22.35;11.68;;;;;;;;;;5032652;28;20375;-67
2021/12/09 14:09:29;;;;;;;28.05;13.32;;;;;;;;;;5050357;28;20041;-66
2021/12/09 14:11:55;;;;;;;23.70;11.88;;;;;;;;;;5050203;28;20119;-66
2021/12/09 14:14:26;;;;;;;22.38;12.10;;;;;;;;;;5050189;28;20511;-66
2021/12/09 14:21:50;;;;;;;26.05;12.25;;;;;;;;;;5050539;28;20041;-65
2021/12/09 14:24:20;;;;;;;27.08;12.57;;;;;;;;;;5049775;28;20132;-66
2021/12/09 14:26:58;;;;;;;22.17;12.02;;;;;;;;;;5049753;28;20044;-66
2021/12/09 14:29:25;;;;;;;27.10;12.90;;;;;;;;;;5049064;28;20056;-66
2021/12/09 14:31:56;;;;;;;27.23;11.88;;;;;;;;;;5050487;28;20084;-65
2021/12/09 14:34:24;;;;;;;24.88;12.13;;;;;;;;;;5048504;28;20037;-66
2021/12/09 14:36:50;;;;;;;23.25;11.82;;;;;;;;;;5050668;28;20037;-67
2021/12/09 14:39:18;;;;;;;29.45;13.35;;;;;;;;;;5050445;28;20491;-64
2021/12/09 14:41:45;;;;;;;24.05;13.30;;;;;;;;;;5049867;28;20060;-64
2021/12/09 14:44:11;;;;;;;21.02;12.23;;;;;;;;;;5050160;28;20049;-65
2021/12/09 14:46:39;;;;;;;24.20;12.30;;;;;;;;;;5015683;28;20050;-66
2021/12/09 14:49:15;;;;;;;22.85;11.80;;;;;;;;;;5049329;28;20458;-66
2021/12/09 14:51:44;;;;;;;30.58;12.63;;;;;;;;;;5050617;28;20380;-66
2021/12/09 14:54:13;;;;;;;23.00;12.02;;;;;;;;;;5050435;28;20114;-65
2021/12/09 14:56:42;;;;;;;25.33;12.18;;;;;;;;;;5049254;28;20037;-66
2021/12/09 14:59:24;;;;;;;22.80;12.05;;;;;;;;;;5050157;28;20044;-66
2021/12/09 15:02:11;;;;;;;24.52;12.70;;;;;;;;;;5031431;28;20045;-64
2021/12/09 15:04:43;;;;;;;30.65;12.90;;;;;;;;;;5034632;28;20475;-64
2021/12/09 15:07:12;;;;;;;25.37;12.63;;;;;;;;;;5050337;28;20049;-67
2021/12/09 15:09:39;;;;;;;23.92;12.43;;;;;;;;;;5031429;28;20295;-68
2021/12/09 15:12:09;;;;;;;25.77;13.60;;;;;;;;;;5031183;28;20044;-67
2021/12/09 15:14:41;;;;;;;32.55;13.05;;;;;;;;;;5049083;28;20056;-66
2021/12/09 15:17:16;;;;;;;28.30;13.23;;;;;;;;;;5050438;28;20041;-67
2021/12/09 15:19:44;;;;;;;32.35;13.18;;;;;;;;;;5021294;28;20087;-67
2021/12/09 15:22:20;;;;;;;25.42;13.35;;;;;;;;;;5022968;28;20055;-67
2021/12/09 15:25:06;;;;;;;24.83;14.10;;;;;;;;;;5008078;28;20138;-65
2021/12/09 15:27:49;;;;;;;28.38;14.60;;;;;;;;;;5029559;28;20069;-64
2021/12/09 15:30:15;;;;;;;29.02;13.90;;;;;;;;;;5012245;28;20072;-66
2021/12/09 15:32:55;;;;;;;34.20;13.77;;;;;;;;;;5030077;28;20113;-66
2021/12/09 15:35:21;;;;;;;28.92;14.07;;;;;;;;;;5011687;28;20052;-66
2021/12/09 15:37:47;;;;;;;29.00;14.45;;;;;;;;;;5012543;28;20041;-67
2021/12/09 15:40:13;;;;;;;28.98;14.30;;;;;;;;;;5027332;28;20375;-66
2021/12/09 15:42:39;;;;;;;25.60;14.35;;;;;;;;;;5010836;28;20610;-66
2021/12/09 15:45:09;;;;;;;24.83;13.45;;;;;;;;;;5029534;28;20080;-66